Time;durP1;ratioP1;P1;durP2;ratioP2;P2;SDS_P1;SDS_P2;PMS_P1;PMS_P2;Temp;Humidity;BMP_temperature;BMP_pressure;BME280_temperature;BME280_humidity;BME280_pressure;Samples;Min_cycle;Max_cycle;Signal;HPM_P1;HPM_P2
2023/03/05 00:01:47;;;;;;;18.40;15.93;;;12.70;1.00;;;;;;5034277;28;20903;-44
2023/03/05 00:04:14;;;;;;;20.30;17.37;;;12.40;1.00;;;;;;5034299;28;20466;-42
2023/03/05 00:06:40;;;;;;;19.90;17.13;;;12.00;1.00;;;;;;5035050;28;20170;-42
2023/03/05 00:09:06;;;;;;;19.67;16.70;;;11.50;1.00;;;;;;5036040;28;20436;-42
2023/03/05 00:11:32;;;;;;;22.30;18.57;;;10.90;1.00;;;;;;5035595;28;20489;-42
2023/03/05 00:13:59;;;;;;;23.03;17.83;;;10.40;1.00;;;;;;5033894;28;20526;-43
2023/03/05 00:16:25;;;;;;;22.43;17.43;;;10.00;1.00;;;;;;5035429;28;20463;-43
2023/03/05 00:18:52;;;;;;;21.33;17.30;;;9.60;1.00;;;;;;5036176;28;20549;-41
2023/03/05 00:21:27;;;;;;;24.57;19.50;;;9.30;1.00;;;;;;5036541;28;20521;-43
2023/03/05 00:23:54;;;;;;;21.67;17.77;;;8.90;1.00;;;;;;5034981;28;20445;-42
2023/03/05 00:26:22;;;;;;;22.03;18.30;;;8.70;1.00;;;;;;5035617;28;20421;-41
2023/03/05 00:28:50;;;;;;;24.00;18.30;;;8.40;1.00;;;;;;5037517;28;20502;-41
2023/03/05 00:31:20;;;;;;;22.40;17.73;;;8.20;1.00;;;;;;5036830;28;20435;-43
2023/03/05 00:33:51;;;;;;;25.90;19.70;;;8.00;1.00;;;;;;5036168;28;20424;-43
2023/03/05 00:36:16;;;;;;;25.30;18.73;;;7.90;1.00;;;;;;5035738;28;20413;-42
2023/03/05 00:38:42;;;;;;;28.43;19.53;;;7.70;1.00;;;;;;5035296;28;20804;-42
2023/03/05 00:41:08;;;;;;;25.33;19.53;;;7.60;1.00;;;;;;5035107;28;20212;-41
2023/03/05 00:43:33;;;;;;;27.03;20.00;;;7.50;1.00;;;;;;5034575;28;20579;-41
2023/03/05 00:45:59;;;;;;;23.70;19.13;;;7.40;1.00;;;;;;5034811;28;20502;-41
2023/03/05 00:48:25;;;;;;;23.80;18.90;;;7.30;1.00;;;;;;5034922;28;20282;-41
2023/03/05 00:50:51;;;;;;;31.43;23.27;;;7.20;1.00;;;;;;5034704;28;20174;-41
2023/03/05 00:53:16;;;;;;;26.07;21.20;;;7.10;1.00;;;;;;5034671;28;20240;-42
2023/03/05 00:55:42;;;;;;;26.00;20.70;;;7.00;1.00;;;;;;5035161;28;20497;-41
2023/03/05 00:58:08;;;;;;;28.17;21.07;;;7.00;1.00;;;;;;5034512;28;20415;-42
2023/03/05 01:00:34;;;;;;;25.63;20.17;;;6.90;1.00;;;;;;5034934;28;20736;-41
2023/03/05 01:03:00;;;;;;;30.83;21.50;;;6.80;1.00;;;;;;5034797;28;20189;-41
2023/03/05 01:05:26;;;;;;;26.03;20.40;;;6.80;1.00;;;;;;5036113;28;20413;-43
2023/03/05 01:07:53;;;;;;;24.60;19.20;;;6.70;1.00;;;;;;5037235;28;20632;-42
2023/03/05 01:10:19;;;;;;;24.00;19.37;;;6.60;1.00;;;;;;5037154;28;20197;-41
2023/03/05 01:12:45;;;;;;;26.43;20.23;;;6.60;1.00;;;;;;5039487;28;20764;-42
2023/03/05 01:15:10;;;;;;;29.23;21.13;;;6.50;1.00;;;;;;5041451;28;20467;-42
2023/03/05 01:17:36;;;;;;;31.57;21.40;;;6.50;1.00;;;;;;5039580;28;20562;-41
2023/03/05 01:20:03;;;;;;;27.93;20.57;;;6.50;1.00;;;;;;5041329;28;20213;-41
2023/03/05 01:22:29;;;;;;;27.73;20.90;;;6.40;1.00;;;;;;5040700;28;20174;-42
2023/03/05 01:24:54;;;;;;;29.10;20.40;;;6.30;1.00;;;;;;5040241;28;20514;-43
2023/03/05 01:27:20;;;;;;;31.73;20.43;;;6.30;1.00;;;;;;5038991;28;20174;-42
2023/03/05 01:29:46;;;;;;;29.70;20.90;;;6.30;1.00;;;;;;5039525;28;20229;-41
2023/03/05 01:32:11;;;;;;;27.90;21.30;;;6.20;1.00;;;;;;5040194;28;20425;-41
2023/03/05 01:34:37;;;;;;;30.03;21.10;;;6.20;1.00;;;;;;5039605;28;20185;-41
2023/03/05 01:37:03;;;;;;;30.53;21.20;;;6.10;1.00;;;;;;5036965;28;20675;-42
2023/03/05 01:39:28;;;;;;;28.40;22.30;;;6.10;1.00;;;;;;5037105;28;20193;-42
2023/03/05 01:41:54;;;;;;;30.40;21.33;;;6.10;1.00;;;;;;5036138;28;20271;-42
2023/03/05 01:44:26;;;;;;;29.17;21.20;;;6.00;1.00;;;;;;5036966;28;20190;-42
2023/03/05 01:46:51;;;;;;;27.67;19.20;;;6.00;1.00;;;;;;5036747;28;20182;-41
2023/03/05 01:49:24;;;;;;;31.27;20.93;;;6.00;1.00;;;;;;5037011;28;20425;-41
2023/03/05 01:51:53;;;;;;;27.87;19.30;;;5.90;1.00;;;;;;5039650;28;20177;-41
2023/03/05 01:54:20;;;;;;;31.47;21.50;;;5.90;1.00;;;;;;5040058;28;20708;-41
2023/03/05 01:56:48;;;;;;;28.73;21.43;;;5.90;1.00;;;;;;5038897;28;20409;-43
2023/03/05 01:59:14;;;;;;;28.70;22.37;;;5.90;1.00;;;;;;5039940;28;20498;-41
2023/03/05 02:01:43;;;;;;;33.20;21.80;;;5.80;1.00;;;;;;5021226;28;20466;-41
2023/03/05 02:04:11;;;;;;;30.17;21.47;;;5.80;1.00;;;;;;5037295;28;20433;-41
2023/03/05 02:06:37;;;;;;;27.60;20.80;;;5.80;1.00;;;;;;5039268;28;20406;-40
2023/03/05 02:09:03;;;;;;;31.43;22.10;;;5.80;1.00;;;;;;5020953;28;20985;-41
2023/03/05 02:11:29;;;;;;;32.87;23.87;;;5.70;1.00;;;;;;5038945;28;20421;-44
2023/03/05 02:13:55;;;;;;;30.53;21.90;;;5.70;1.00;;;;;;5037583;28;20233;-41
2023/03/05 02:16:21;;;;;;;31.73;22.27;;;5.70;1.00;;;;;;5037476;28;20197;-41
2023/03/05 02:18:46;;;;;;;30.63;23.50;;;5.70;1.00;;;;;;5040045;28;20428;-41
2023/03/05 02:21:12;;;;;;;33.17;23.80;;;5.70;1.00;;;;;;5039557;28;20210;-42
2023/03/05 02:23:39;;;;;;;28.00;21.10;;;5.70;1.00;;;;;;5022245;28;20202;-42
2023/03/05 02:26:07;;;;;;;32.00;22.37;;;5.70;1.00;;;;;;5039452;28;20456;-43
2023/03/05 02:28:44;;;;;;;28.23;20.43;;;5.70;1.00;;;;;;5039309;28;20425;-42
2023/03/05 02:31:16;;;;;;;31.17;22.47;;;5.70;4.20;;;;;;5039243;28;20447;-42
2023/03/05 02:33:41;;;;;;;28.67;21.40;;;5.60;9.70;;;;;;5038086;28;20425;-42
2023/03/05 02:36:08;;;;;;;30.70;22.10;;;5.60;14.80;;;;;;5040586;28;20496;-43
2023/03/05 02:38:34;;;;;;;32.90;21.53;;;5.60;21.70;;;;;;5039166;28;20183;-42
2023/03/05 02:40:59;;;;;;;30.27;21.37;;;5.60;27.50;;;;;;5037536;28;20680;-42
2023/03/05 02:43:25;;;;;;;32.17;21.83;;;5.50;38.30;;;;;;5037024;28;20429;-43
2023/03/05 02:45:51;;;;;;;30.93;21.10;;;5.50;50.40;;;;;;5038232;28;20244;-42
2023/03/05 02:48:17;;;;;;;33.77;22.53;;;5.50;65.20;;;;;;5037643;28;20252;-42
2023/03/05 02:50:44;;;;;;;28.17;21.80;;;5.50;78.10;;;;;;5038121;28;20804;-43
2023/03/05 02:53:09;;;;;;;31.07;22.83;;;5.50;86.20;;;;;;5037786;28;20197;-42
2023/03/05 02:55:35;;;;;;;30.77;21.70;;;5.50;94.40;;;;;;5038662;28;21018;-42
2023/03/05 02:58:00;;;;;;;28.53;22.17;;;5.40;99.90;;;;;;5038608;28;20201;-43
2023/03/05 03:00:26;;;;;;;31.10;20.20;;;5.40;99.90;;;;;;5039454;28;20214;-42
2023/03/05 03:02:52;;;;;;;29.07;22.73;;;5.40;99.90;;;;;;5039122;28;20181;-42
2023/03/05 03:05:18;;;;;;;31.37;22.60;;;5.40;99.90;;;;;;5038304;28;20189;-41
2023/03/05 03:07:43;;;;;;;31.33;21.53;;;5.40;99.90;;;;;;5038995;28;20455;-41
2023/03/05 03:10:10;;;;;;;29.67;21.10;;;5.40;99.90;;;;;;5038907;28;20189;-40
2023/03/05 03:12:40;;;;;;;32.13;22.90;;;5.40;99.90;;;;;;5035861;28;20190;-42
2023/03/05 03:15:08;;;;;;;34.17;22.50;;;5.40;99.90;;;;;;5034750;28;20432;-40
2023/03/05 03:17:34;;;;;;;28.93;19.83;;;5.40;99.90;;;;;;5036190;28;20424;-41
2023/03/05 03:20:02;;;;;;;30.30;22.47;;;5.40;99.90;;;;;;5036347;28;20595;-41
2023/03/05 03:22:28;;;;;;;28.80;20.93;;;5.40;99.90;;;;;;5037362;28;20402;-41
2023/03/05 03:24:53;;;;;;;30.97;21.97;;;5.30;99.90;;;;;;5037011;28;20436;-41
2023/03/05 03:27:19;;;;;;;33.63;23.33;;;5.30;99.90;;;;;;5036426;28;20518;-40
2023/03/05 03:29:44;;;;;;;32.63;22.10;;;5.40;99.90;;;;;;5037309;28;20260;-40
2023/03/05 03:32:10;;;;;;;30.97;21.60;;;5.30;99.90;;;;;;5036661;28;20179;-41
2023/03/05 03:34:36;;;;;;;30.87;20.67;;;5.30;99.90;;;;;;5035019;28;20190;-41
2023/03/05 03:37:01;;;;;;;31.27;21.37;;;5.30;99.90;;;;;;5034836;28;20265;-40
2023/03/05 03:39:28;;;;;;;30.23;20.13;;;5.30;99.90;;;;;;5035541;28;20186;-40
2023/03/05 03:41:53;;;;;;;29.57;19.27;;;5.30;99.90;;;;;;5035512;28;20209;-39
2023/03/05 03:44:20;;;;;;;27.80;18.43;;;5.30;99.90;;;;;;5036244;28;20444;-40
2023/03/05 03:46:47;;;;;;;27.80;19.20;;;5.30;99.90;;;;;;5035008;28;20229;-42
2023/03/05 03:49:15;;;;;;;28.17;21.63;;;5.30;99.90;;;;;;5036193;28;20429;-40
2023/03/05 03:51:41;;;;;;;27.97;20.10;;;5.30;99.90;;;;;;5036618;28;20417;-41
2023/03/05 03:54:07;;;;;;;26.40;17.80;;;5.30;99.90;;;;;;5037195;28;20575;-41
2023/03/05 03:56:32;;;;;;;26.53;20.97;;;5.20;99.90;;;;;;5035744;28;20201;-40
2023/03/05 03:58:58;;;;;;;28.17;20.40;;;5.20;99.90;;;;;;5037435;28;20245;-40
2023/03/05 04:01:24;;;;;;;30.77;21.30;;;5.20;99.90;;;;;;5037685;28;20301;-39
2023/03/05 04:03:49;;;;;;;25.27;18.27;;;5.20;1.00;;;;;;5036847;28;20193;-42
2023/03/05 04:06:15;;;;;;;34.43;20.07;;;5.20;1.00;;;;;;5036556;28;20168;-40
2023/03/05 04:08:41;;;;;;;31.87;21.00;;;5.20;1.00;;;;;;5035746;28;20532;-40
2023/03/05 04:11:06;;;;;;;28.77;20.20;;;5.20;1.00;;;;;;5035875;28;20189;-41
2023/03/05 04:13:32;;;;;;;29.80;19.57;;;5.10;1.00;;;;;;5035627;28;20193;-40
2023/03/05 04:15:58;;;;;;;30.60;21.03;;;5.10;1.00;;;;;;5035931;28;20588;-41
2023/03/05 04:18:24;;;;;;;31.87;20.50;;;5.10;1.00;;;;;;5035926;28;20204;-41
2023/03/05 04:20:49;;;;;;;26.37;19.07;;;5.10;1.00;;;;;;5035027;28;20206;-42
2023/03/05 04:23:16;;;;;;;31.70;20.40;;;5.10;1.00;;;;;;5036699;28;20433;-40
2023/03/05 04:25:41;;;;;;;33.17;21.70;;;5.10;1.00;;;;;;5037951;28;20170;-41
2023/03/05 04:28:07;;;;;;;30.30;19.73;;;5.10;1.00;;;;;;5036787;28;20441;-41
2023/03/05 04:30:33;;;;;;;29.97;20.63;;;5.10;1.00;;;;;;5039045;28;20234;-40
2023/03/05 04:32:58;;;;;;;32.53;21.10;;;5.10;11.70;;;;;;5038039;28;20186;-42
2023/03/05 04:35:24;;;;;;;28.37;19.17;;;5.00;55.70;;;;;;5038036;28;20545;-40
2023/03/05 04:37:50;;;;;;;29.77;21.33;;;5.00;99.90;;;;;;5037160;28;20186;-42
2023/03/05 04:40:16;;;;;;;27.83;19.97;;;5.00;99.90;;;;;;5038263;28;20210;-40
2023/03/05 04:42:42;;;;;;;31.73;19.27;;;5.00;99.90;;;;;;5037292;28;20178;-40
2023/03/05 04:45:09;;;;;;;31.50;21.73;;;5.00;99.90;;;;;;5038504;28;20487;-41
2023/03/05 04:47:35;;;;;;;27.77;18.57;;;5.00;99.90;;;;;;5037704;28;20437;-41
2023/03/05 04:50:02;;;;;;;32.40;21.30;;;5.00;99.90;;;;;;5038951;28;20717;-41
2023/03/05 04:52:28;;;;;;;32.73;21.13;;;5.00;99.90;;;;;;5039167;28;20628;-41
2023/03/05 04:54:53;;;;;;;27.37;18.90;;;5.00;99.90;;;;;;5039420;28;20440;-41
2023/03/05 04:57:19;;;;;;;34.23;22.27;;;5.00;99.90;;;;;;5038833;28;20244;-40
2023/03/05 04:59:45;;;;;;;32.90;21.43;;;5.00;99.90;;;;;;5038588;28;20198;-40
2023/03/05 05:02:10;;;;;;;30.27;20.77;;;4.90;99.90;;;;;;5037054;28;20180;-41
2023/03/05 05:04:36;;;;;;;28.57;19.43;;;5.00;99.90;;;;;;5037442;28;20240;-41
2023/03/05 05:07:03;;;;;;;27.17;19.93;;;4.90;99.90;;;;;;5037438;28;20206;-41
2023/03/05 05:09:29;;;;;;;30.23;21.07;;;5.00;99.90;;;;;;5037584;28;20308;-41
2023/03/05 05:11:55;;;;;;;27.90;20.20;;;5.00;99.90;;;;;;5037711;28;20445;-42
2023/03/05 05:14:20;;;;;;;32.07;20.93;;;4.90;99.90;;;;;;5037618;28;20436;-41
2023/03/05 05:16:46;;;;;;;29.70;20.27;;;4.90;99.90;;;;;;5037432;28;20789;-41
2023/03/05 05:19:12;;;;;;;30.53;20.07;;;5.00;99.90;;;;;;5037068;28;20210;-40
2023/03/05 05:21:38;;;;;;;29.07;20.57;;;4.90;99.90;;;;;;5036551;28;20257;-40
2023/03/05 05:24:03;;;;;;;30.10;21.17;;;4.90;99.90;;;;;;5036589;28;20185;-42
2023/03/05 05:26:29;;;;;;;32.40;21.47;;;4.90;99.90;;;;;;5036723;28;20245;-40
2023/03/05 05:28:55;;;;;;;26.80;20.33;;;4.90;99.90;;;;;;5036324;28;20433;-40
2023/03/05 05:31:20;;;;;;;32.80;21.63;;;4.90;99.90;;;;;;5036649;28;20171;-40
2023/03/05 05:33:46;;;;;;;32.73;20.37;;;4.90;99.90;;;;;;5036729;28;20190;-41
2023/03/05 05:36:14;;;;;;;31.53;20.73;;;4.90;99.90;;;;;;5037172;28;20171;-41
2023/03/05 05:38:40;;;;;;;31.60;20.47;;;4.90;99.90;;;;;;5036942;28;20182;-45
2023/03/05 05:41:11;;;;;;;31.87;19.40;;;4.90;99.90;;;;;;5037083;28;20468;-41
2023/03/05 05:43:37;;;;;;;30.87;19.20;;;4.90;99.90;;;;;;5036978;28;20429;-41
2023/03/05 05:46:07;;;;;;;28.97;19.40;;;4.90;99.90;;;;;;5036741;28;20401;-42
2023/03/05 05:48:34;;;;;;;33.57;22.20;;;4.90;99.90;;;;;;5036630;28;20417;-42
2023/03/05 05:51:05;;;;;;;27.50;18.60;;;4.90;99.90;;;;;;5036434;28;20432;-41
2023/03/05 05:53:31;;;;;;;28.77;20.43;;;4.90;99.90;;;;;;5036808;28;20484;-41
2023/03/05 05:55:57;;;;;;;35.37;20.80;;;4.90;99.90;;;;;;5035489;28;20421;-41
2023/03/05 05:58:22;;;;;;;30.03;20.33;;;4.90;99.90;;;;;;5036975;28;20534;-41
2023/03/05 06:00:48;;;;;;;32.30;22.20;;;4.90;99.90;;;;;;5039089;28;20576;-41
2023/03/05 06:03:14;;;;;;;28.23;18.73;;;4.90;99.90;;;;;;5039201;28;20291;-42
2023/03/05 06:05:41;;;;;;;30.30;20.70;;;4.90;99.90;;;;;;5039012;28;20170;-42
2023/03/05 06:08:07;;;;;;;26.93;19.00;;;4.90;99.90;;;;;;5039388;28;20183;-42
2023/03/05 06:10:54;;;;;;;26.37;18.00;;;4.90;99.90;;;;;;5037991;28;20432;-41
2023/03/05 06:13:22;;;;;;;27.10;18.67;;;4.90;99.90;;;;;;5039163;28;20778;-41
2023/03/05 06:15:56;;;;;;;25.33;17.57;;;4.90;99.90;;;;;;5039667;28;20423;-43
2023/03/05 06:18:22;;;;;;;26.70;18.93;;;4.90;99.90;;;;;;5039602;28;20487;-41
2023/03/05 06:20:56;;;;;;;26.23;18.20;;;4.90;99.90;;;;;;5039720;28;20551;-42
2023/03/05 06:23:23;;;;;;;24.03;16.60;;;4.90;99.90;;;;;;5040137;28;20182;-42
2023/03/05 06:25:49;;;;;;;24.87;17.07;;;4.90;99.90;;;;;;5040499;28;20504;-45
2023/03/05 06:28:15;;;;;;;26.27;18.73;;;4.90;99.90;;;;;;5040329;28;20480;-42
2023/03/05 06:30:41;;;;;;;27.53;17.70;;;5.00;99.90;;;;;;5040240;28;20344;-42
2023/03/05 06:33:06;;;;;;;24.23;16.73;;;5.00;99.90;;;;;;5040404;28;20871;-42
2023/03/05 06:35:32;;;;;;;27.80;17.50;;;5.00;99.90;;;;;;5039925;28;20265;-40
2023/03/05 06:37:58;;;;;;;28.30;19.37;;;5.00;99.90;;;;;;5040250;28;20210;-42
2023/03/05 06:40:24;;;;;;;27.90;18.97;;;5.00;99.90;;;;;;5038754;28;20948;-41
2023/03/05 06:42:49;;;;;;;30.17;19.77;;;5.10;99.90;;;;;;5039846;28;20231;-42
2023/03/05 06:45:15;;;;;;;26.73;17.80;;;5.10;99.90;;;;;;5039453;28;20178;-43
2023/03/05 06:47:41;;;;;;;26.63;17.60;;;5.10;99.90;;;;;;5039582;28;20174;-41
2023/03/05 06:50:07;;;;;;;26.50;18.23;;;5.10;99.90;;;;;;5039358;28;20178;-41
2023/03/05 06:52:33;;;;;;;26.20;18.00;;;5.20;99.90;;;;;;5039330;28;20521;-41
2023/03/05 06:54:58;;;;;;;22.77;18.00;;;5.20;99.90;;;;;;5038965;28;20425;-42
2023/03/05 06:57:24;;;;;;;21.10;17.20;;;5.20;99.90;;;;;;5038503;28;20174;-41
2023/03/05 06:59:49;;;;;;;30.97;17.97;;;5.20;99.90;;;;;;5038209;28;20194;-41
2023/03/05 07:02:15;;;;;;;23.67;16.90;;;5.20;99.90;;;;;;5038254;28;20175;-40
2023/03/05 07:04:41;;;;;;;29.07;19.20;;;5.30;99.90;;;;;;5037779;28;20209;-41
2023/03/05 07:07:07;;;;;;;24.50;19.43;;;5.30;99.90;;;;;;5037548;28;20178;-42
2023/03/05 07:09:33;;;;;;;26.50;17.93;;;5.30;99.90;;;;;;5036373;28;20175;-41
2023/03/05 07:11:58;;;;;;;24.87;18.07;;;5.40;99.90;;;;;;5036617;28;20522;-42
2023/03/05 07:14:24;;;;;;;25.10;18.30;;;5.40;99.90;;;;;;5037440;28;20206;-41
2023/03/05 07:16:50;;;;;;;23.70;17.93;;;5.50;99.90;;;;;;5037383;28;20257;-42
2023/03/05 07:19:15;;;;;;;27.20;17.73;;;5.50;99.90;;;;;;5037070;28;20197;-42
2023/03/05 07:21:41;;;;;;;29.60;18.17;;;5.50;99.90;;;;;;5037723;28;20257;-40
2023/03/05 07:24:07;;;;;;;23.30;17.40;;;5.60;99.90;;;;;;5037490;28;20178;-40
2023/03/05 07:26:33;;;;;;;23.17;17.47;;;5.60;71.80;;;;;;5036989;28;20163;-42
2023/03/05 07:29:00;;;;;;;23.87;16.57;;;5.70;36.10;;;;;;5038716;28;20487;-41
2023/03/05 07:31:29;;;;;;;25.03;17.60;;;5.70;14.10;;;;;;5037531;28;20413;-42
2023/03/05 07:33:55;;;;;;;27.03;17.17;;;5.80;1.00;;;;;;5037728;28;20425;-41
2023/03/05 07:36:21;;;;;;;21.47;17.20;;;5.80;1.00;;;;;;5037835;28;20512;-40
2023/03/05 07:38:47;;;;;;;25.40;16.87;;;5.80;1.00;;;;;;5036976;28;20778;-40
2023/03/05 07:41:18;;;;;;;23.47;17.50;;;5.90;1.00;;;;;;5037214;28;20209;-42
2023/03/05 07:43:45;;;;;;;20.37;15.70;;;5.90;1.00;;;;;;5035554;28;20565;-40
2023/03/05 07:46:11;;;;;;;23.97;16.17;;;5.90;1.00;;;;;;5034344;28;20409;-42
2023/03/05 07:48:37;;;;;;;23.57;16.70;;;6.00;1.00;;;;;;5033984;28;20519;-41
2023/03/05 07:51:05;;;;;;;22.90;16.53;;;6.00;1.00;;;;;;5033329;28;20604;-41
2023/03/05 07:53:30;;;;;;;20.30;15.73;;;6.00;1.00;;;;;;5034734;28;20277;-41
2023/03/05 07:55:56;;;;;;;21.07;16.63;;;6.10;1.00;;;;;;5034689;28;20504;-41
2023/03/05 07:58:22;;;;;;;20.03;14.43;;;6.10;1.00;;;;;;5035669;28;20252;-41
2023/03/05 08:00:48;;;;;;;27.20;18.60;;;6.10;1.00;;;;;;5034915;28;20229;-41
2023/03/05 08:03:14;;;;;;;21.00;15.40;;;6.20;1.00;;;;;;5035618;28;20460;-40
2023/03/05 08:05:40;;;;;;;18.93;15.30;;;6.30;1.00;;;;;;5036799;28;20449;-41
2023/03/05 08:08:06;;;;;;;21.90;16.37;;;6.30;1.00;;;;;;5036403;28;20178;-40
2023/03/05 08:10:33;;;;;;;22.53;16.37;;;6.40;1.00;;;;;;5036781;28;20428;-41
2023/03/05 08:12:58;;;;;;;24.03;16.10;;;6.40;1.00;;;;;;5036424;28;20425;-40
2023/03/05 08:15:24;;;;;;;21.40;16.97;;;6.50;99.90;;;;;;5037159;28;20491;-44
2023/03/05 08:17:50;;;;;;;28.90;20.00;;;6.50;99.90;;;;;;5037659;28;20210;-42
2023/03/05 08:20:18;;;;;;;24.93;17.87;;;6.60;99.90;;;;;;5037451;28;20245;-40
2023/03/05 08:22:44;;;;;;;20.00;17.00;;;6.60;99.90;;;;;;5037365;28;20456;-41
2023/03/05 08:25:10;;;;;;;23.83;17.13;;;6.70;99.90;;;;;;5036040;28;20418;-40
2023/03/05 08:27:45;;;;;;;21.53;16.90;;;6.70;99.90;;;;;;5035820;28;20421;-41
2023/03/05 08:30:13;;;;;;;25.30;18.17;;;6.70;99.90;;;;;;5034202;28;20468;-41
2023/03/05 08:32:39;;;;;;;23.53;18.27;;;6.80;99.90;;;;;;5035075;28;20513;-41
2023/03/05 08:35:06;;;;;;;23.07;18.37;;;6.80;99.90;;;;;;5034880;28;20535;-41
2023/03/05 08:37:32;;;;;;;22.60;18.03;;;6.90;99.90;;;;;;5034897;28;20561;-42
2023/03/05 08:39:58;;;;;;;24.50;18.40;;;7.00;99.90;;;;;;5034441;28;20428;-43
2023/03/05 08:42:24;;;;;;;22.40;16.90;;;7.00;99.90;;;;;;5030160;28;20421;-42
2023/03/05 08:44:50;;;;;;;21.50;15.67;;;7.10;99.90;;;;;;5031642;28;20189;-42
2023/03/05 08:47:17;;;;;;;20.53;16.30;;;7.10;99.90;;;;;;5030965;28;20657;-42
2023/03/05 08:49:43;;;;;;;21.20;16.80;;;7.20;99.90;;;;;;5030618;28;20182;-42
2023/03/05 08:52:09;;;;;;;19.13;16.27;;;7.20;99.90;;;;;;5030972;28;20901;-42
2023/03/05 08:54:36;;;;;;;22.63;17.33;;;7.30;99.90;;;;;;5032957;28;20221;-43
2023/03/05 08:57:02;;;;;;;23.73;16.30;;;7.40;99.90;;;;;;5033175;28;20473;-41
2023/03/05 08:59:27;;;;;;;22.00;16.97;;;7.50;99.90;;;;;;5034263;28;20429;-40
2023/03/05 09:01:53;;;;;;;21.63;15.83;;;7.60;96.00;;;;;;5035756;28;20642;-43
2023/03/05 09:04:19;;;;;;;20.67;16.73;;;7.70;78.20;;;;;;5033903;28;20515;-41
2023/03/05 09:06:44;;;;;;;20.40;16.30;;;7.80;45.70;;;;;;5033985;28;20171;-42
2023/03/05 09:09:11;;;;;;;24.70;17.90;;;7.90;26.90;;;;;;5034982;28;20175;-41
2023/03/05 09:11:37;;;;;;;20.63;15.83;;;8.00;13.50;;;;;;5034886;28;20170;-41
2023/03/05 09:14:03;;;;;;;22.77;17.07;;;8.10;1.00;;;;;;5035073;28;20759;-41
2023/03/05 09:16:29;;;;;;;21.53;17.03;;;8.30;1.00;;;;;;5034320;28;20432;-41
2023/03/05 09:18:55;;;;;;;21.10;17.80;;;8.40;1.00;;;;;;5032452;28;20850;-42
2023/03/05 09:21:20;;;;;;;24.93;20.73;;;8.50;1.00;;;;;;5035834;28;20269;-41
2023/03/05 09:23:46;;;;;;;20.90;18.07;;;8.70;1.00;;;;;;5036152;28;20421;-42
2023/03/05 09:26:14;;;;;;;24.70;20.40;;;8.80;1.00;;;;;;5035046;28;20281;-41
2023/03/05 09:28:40;;;;;;;24.10;17.23;;;9.00;1.00;;;;;;5035690;28;20289;-42
2023/03/05 09:31:08;;;;;;;24.93;19.53;;;9.10;1.00;;;;;;5034537;28;20416;-42
2023/03/05 09:33:35;;;;;;;24.40;18.87;;;9.30;1.00;;;;;;5035493;28;20436;-43
2023/03/05 09:36:01;;;;;;;21.80;17.50;;;9.40;1.00;;;;;;5038457;28;20428;-42
2023/03/05 09:38:28;;;;;;;21.80;18.20;;;9.50;1.00;;;;;;5036868;28;20580;-44
2023/03/05 09:41:20;;;;;;;22.50;15.17;;;9.70;1.00;;;;;;5037283;28;20471;-43
2023/03/05 09:44:19;;;;;;;17.27;10.30;;;9.90;60.90;;;;;;5020007;28;20425;-43
2023/03/05 09:47:02;;;;;;;14.20;10.07;;;10.40;99.90;;;;;;5037467;28;20405;-43
2023/03/05 09:49:46;;;;;;;13.60;9.33;;;11.10;99.90;;;;;;5036785;28;20468;-45
2023/03/05 09:52:21;;;;;;;17.93;8.10;;;11.90;1.00;;;;;;5034523;28;20515;-43
2023/03/05 09:54:54;;;;;;;13.93;8.83;;;12.60;1.00;;;;;;5035626;28;20429;-44
2023/03/05 09:57:28;;;;;;;12.40;8.20;;;13.20;70.30;;;;;;5034565;28;20413;-43
2023/03/05 09:59:58;;;;;;;13.33;8.63;;;13.80;24.20;;;;;;5035439;28;20534;-45
2023/03/05 10:02:30;;;;;;;10.43;7.60;;;14.20;99.90;;;;;;5034982;28;20506;-45
2023/03/05 10:04:59;;;;;;;9.33;7.73;;;14.60;99.90;;;;;;5035175;28;20807;-45
2023/03/05 10:07:34;;;;;;;11.67;8.07;;;14.90;99.90;;;;;;5035572;28;20416;-44
2023/03/05 10:10:01;;;;;;;9.40;7.47;;;15.20;1.00;;;;;;5036576;28;20424;-44
2023/03/05 10:12:41;;;;;;;12.80;8.40;;;15.40;1.00;;;;;;5036446;28;20413;-44
2023/03/05 10:15:12;;;;;;;13.57;8.87;;;15.60;1.00;;;;;;5038111;28;20409;-45
2023/03/05 10:17:54;;;;;;;8.53;7.63;;;15.70;1.00;;;;;;5036623;28;20479;-43
2023/03/05 10:20:37;;;;;;;8.97;8.07;;;15.80;1.00;;;;;;5036920;28;20602;-45
2023/03/05 10:23:32;;;;;;;10.20;8.70;;;15.90;1.00;;;;;;5036257;28;20799;-43
2023/03/05 10:26:04;;;;;;;12.77;7.87;;;15.90;1.00;;;;;;5035690;28;20467;-44
2023/03/05 10:29:04;;;;;;;11.33;8.60;;;16.00;1.00;;;;;;5033621;28;20431;-43
2023/03/05 10:31:40;;;;;;;11.13;7.93;;;16.00;1.00;;;;;;5018696;28;20524;-47
2023/03/05 10:34:15;;;;;;;9.10;7.80;;;16.10;1.00;;;;;;5036595;28;20417;-46
2023/03/05 10:36:55;;;;;;;10.93;8.40;;;16.20;1.00;;;;;;5036627;28;20803;-44
2023/03/05 10:39:46;;;;;;;10.47;9.13;;;16.20;1.00;;;;;;5035713;28;20704;-44
2023/03/05 10:42:19;;;;;;;9.73;7.87;;;16.30;1.00;;;;;;5036457;28;20556;-43
2023/03/05 10:44:52;;;;;;;11.27;7.00;;;16.30;1.00;;;;;;5034829;28;20421;-44
2023/03/05 10:47:24;;;;;;;9.93;8.03;;;16.40;1.00;;;;;;5035037;28;20898;-43
2023/03/05 10:49:53;;;;;;;9.80;8.23;;;16.50;1.00;;;;;;5035783;28;20922;-46
2023/03/05 10:52:30;;;;;;;10.50;8.23;;;16.50;1.00;;;;;;5036150;28;20832;-45
2023/03/05 10:54:55;;;;;;;10.47;8.10;;;16.50;1.00;;;;;;5034269;28;20441;-44
2023/03/05 10:57:24;;;;;;;9.13;8.33;;;16.50;1.00;;;;;;5037865;28;20490;-46
2023/03/05 11:00:06;;;;;;;12.30;7.97;;;16.60;1.00;;;;;;5036405;28;20548;-45
2023/03/05 11:02:51;;;;;;;9.73;8.73;;;16.60;1.00;;;;;;5036826;28;20790;-46
2023/03/05 11:05:42;;;;;;;11.43;10.13;;;16.50;1.00;;;;;;5032927;28;20461;-44
2023/03/05 11:08:29;;;;;;;13.97;12.20;;;16.20;1.00;;;;;;5037862;28;20413;-42
2023/03/05 11:11:08;;;;;;;12.73;11.53;;;15.70;1.00;;;;;;5037130;28;20401;-43
2023/03/05 11:13:43;;;;;;;15.37;12.10;;;15.00;1.00;;;;;;5035636;28;20409;-42
2023/03/05 11:16:16;;;;;;;15.97;14.27;;;14.40;1.00;;;;;;5036930;28;20481;-43
2023/03/05 11:18:43;;;;;;;15.97;14.23;;;13.80;1.00;;;;;;5036413;28;20815;-42
2023/03/05 11:21:11;;;;;;;13.57;12.10;;;13.30;1.00;;;;;;5036736;28;20559;-42
2023/03/05 11:23:37;;;;;;;13.33;11.90;;;12.90;1.00;;;;;;5035835;28;20428;-43
2023/03/05 11:26:22;;;;;;;15.17;13.60;;;12.50;1.00;;;;;;5035971;28;20401;-41
2023/03/05 11:28:53;;;;;;;14.67;12.47;;;12.20;1.00;;;;;;5035058;28;20838;-42
2023/03/05 11:31:23;;;;;;;17.97;13.47;;;11.90;1.00;;;;;;5035698;28;20979;-43
2023/03/05 11:33:59;;;;;;;17.80;14.83;;;11.60;1.00;;;;;;5034483;28;20429;-44
2023/03/05 11:36:42;;;;;;;16.07;14.10;;;11.40;1.00;;;;;;5036203;28;20420;-44
2023/03/05 11:39:16;;;;;;;17.53;15.50;;;11.10;1.00;;;;;;5033823;28;20796;-44
2023/03/05 11:42:12;;;;;;;18.13;15.83;;;10.90;1.00;;;;;;5036638;28;20465;-42
2023/03/05 11:44:55;;;;;;;17.10;15.10;;;10.70;1.00;;;;;;5025407;28;20523;-42
2023/03/05 11:47:39;;;;;;;16.50;14.70;;;10.50;1.00;;;;;;5018787;28;20429;-44
2023/03/05 11:50:30;;;;;;;17.13;15.13;;;10.40;1.00;;;;;;5036772;28;20437;-44
2023/03/05 11:53:06;;;;;;;17.60;14.70;;;10.20;1.00;;;;;;5037137;28;20426;-42
2023/03/05 11:55:41;;;;;;;17.40;14.83;;;10.10;1.00;;;;;;5035550;28;20508;-43
2023/03/05 11:58:43;;;;;;;17.10;14.17;;;10.00;1.00;;;;;;5036427;28;20420;-43
2023/03/05 12:01:19;;;;;;;17.50;14.53;;;10.00;1.00;;;;;;5035163;28;20464;-42
2023/03/05 12:03:45;;;;;;;18.13;14.50;;;9.90;1.00;;;;;;5037368;28;20421;-42
2023/03/05 12:06:33;;;;;;;23.50;16.03;;;9.90;1.00;;;;;;5036986;28;20440;-42
2023/03/05 12:09:06;;;;;;;17.70;15.83;;;9.80;1.00;;;;;;5036092;28;20425;-43
2023/03/05 12:11:33;;;;;;;20.67;15.63;;;9.80;1.00;;;;;;5037135;28;20482;-42
2023/03/05 12:14:09;;;;;;;16.97;13.60;;;9.80;1.00;;;;;;5037122;28;20439;-43
2023/03/05 12:16:49;;;;;;;16.73;14.47;;;9.70;1.00;;;;;;5036446;28;20439;-42
2023/03/05 12:19:59;;;;;;;16.97;14.70;;;9.60;1.00;;;;;;5035489;28;20447;-42
2023/03/05 12:22:33;;;;;;;20.77;16.97;;;9.50;1.00;;;;;;5003037;28;20430;-43
2023/03/05 12:25:24;;;;;;;17.87;14.53;;;9.40;1.00;;;;;;5033892;28;20417;-42
2023/03/05 12:27:49;;;;;;;18.80;15.10;;;9.30;1.00;;;;;;5034199;28;20492;-42
2023/03/05 12:30:33;;;;;;;22.70;15.43;;;9.20;1.00;;;;;;5034205;28;20465;-43
2023/03/05 12:33:03;;;;;;;17.90;14.03;;;9.10;1.00;;;;;;5035449;28;20178;-41
2023/03/05 12:35:39;;;;;;;20.13;14.60;;;9.00;1.00;;;;;;5035704;28;20421;-44
2023/03/05 12:38:28;;;;;;;20.93;15.47;;;9.00;1.00;;;;;;5036518;28;20503;-43
2023/03/05 12:41:23;;;;;;;18.73;14.97;;;9.00;1.00;;;;;;5037309;28;20484;-42
2023/03/05 12:44:04;;;;;;;20.80;16.33;;;9.00;1.00;;;;;;5038148;28;20867;-42
2023/03/05 12:46:56;;;;;;;20.07;16.10;;;8.90;1.00;;;;;;5037488;28;20508;-43
2023/03/05 12:49:27;;;;;;;25.60;18.47;;;8.90;1.00;;;;;;5013656;28;20436;-44
2023/03/05 12:51:54;;;;;;;23.57;16.67;;;8.80;1.00;;;;;;5036638;28;20451;-42